sensor_id;sensor_type;location;lat;lon;timestamp;P1;durP1;ratioP1;P2;durP2;ratioP2
18206;SDS011;9229;52.354;20.886;2023-03-01T00:01:05;48.78;;;19.65;;
18206;SDS011;9229;52.354;20.886;2023-03-01T00:06:10;63.22;;;21.23;;
18206;SDS011;9229;52.354;20.886;2023-03-01T00:11:14;49.95;;;21.67;;
18206;SDS011;9229;52.354;20.886;2023-03-01T00:16:19;38.72;;;18.00;;
18206;SDS011;9229;52.354;20.886;2023-03-01T00:21:24;46.00;;;17.63;;
18206;SDS011;9229;52.354;20.886;2023-03-01T00:26:27;45.33;;;16.88;;
18206;SDS011;9229;52.354;20.886;2023-03-01T00:31:30;41.45;;;17.05;;
18206;SDS011;9229;52.354;20.886;2023-03-01T00:36:36;49.53;;;18.05;;
18206;SDS011;9229;52.354;20.886;2023-03-01T00:41:38;41.53;;;17.27;;
18206;SDS011;9229;52.354;20.886;2023-03-01T00:46:42;41.15;;;16.48;;
18206;SDS011;9229;52.354;20.886;2023-03-01T00:51:45;35.78;;;16.45;;
18206;SDS011;9229;52.354;20.886;2023-03-01T00:56:47;45.05;;;17.35;;
18206;SDS011;9229;52.354;20.886;2023-03-01T01:01:51;40.78;;;17.20;;
18206;SDS011;9229;52.354;20.886;2023-03-01T01:06:55;42.63;;;16.75;;
18206;SDS011;9229;52.354;20.886;2023-03-01T01:11:58;46.88;;;17.55;;
18206;SDS011;9229;52.354;20.886;2023-03-01T01:17:00;40.90;;;15.77;;
18206;SDS011;9229;52.354;20.886;2023-03-01T01:22:04;44.67;;;17.27;;
18206;SDS011;9229;52.354;20.886;2023-03-01T01:27:06;42.22;;;17.25;;
18206;SDS011;9229;52.354;20.886;2023-03-01T01:32:08;45.10;;;17.83;;
18206;SDS011;9229;52.354;20.886;2023-03-01T01:37:12;34.67;;;16.33;;
18206;SDS011;9229;52.354;20.886;2023-03-01T01:42:15;42.17;;;16.83;;
18206;SDS011;9229;52.354;20.886;2023-03-01T01:47:18;44.83;;;16.75;;
18206;SDS011;9229;52.354;20.886;2023-03-01T01:52:25;42.95;;;17.65;;
18206;SDS011;9229;52.354;20.886;2023-03-01T01:57:32;46.67;;;17.92;;
18206;SDS011;9229;52.354;20.886;2023-03-01T02:02:36;36.90;;;16.38;;
18206;SDS011;9229;52.354;20.886;2023-03-01T02:07:41;44.33;;;18.73;;
18206;SDS011;9229;52.354;20.886;2023-03-01T02:12:44;36.38;;;17.73;;
18206;SDS011;9229;52.354;20.886;2023-03-01T02:17:49;40.08;;;16.80;;
18206;SDS011;9229;52.354;20.886;2023-03-01T02:22:53;37.05;;;16.88;;
18206;SDS011;9229;52.354;20.886;2023-03-01T02:27:58;57.90;;;20.15;;
18206;SDS011;9229;52.354;20.886;2023-03-01T02:33:10;44.75;;;18.15;;
18206;SDS011;9229;52.354;20.886;2023-03-01T02:38:12;57.70;;;18.65;;
18206;SDS011;9229;52.354;20.886;2023-03-01T02:43:16;48.00;;;18.05;;
18206;SDS011;9229;52.354;20.886;2023-03-01T02:48:22;51.70;;;18.67;;
18206;SDS011;9229;52.354;20.886;2023-03-01T02:53:27;52.38;;;20.50;;
18206;SDS011;9229;52.354;20.886;2023-03-01T02:58:34;42.78;;;19.05;;
18206;SDS011;9229;52.354;20.886;2023-03-01T03:03:48;41.15;;;17.52;;
18206;SDS011;9229;52.354;20.886;2023-03-01T03:08:51;45.22;;;18.35;;
18206;SDS011;9229;52.354;20.886;2023-03-01T03:13:53;51.83;;;18.10;;
18206;SDS011;9229;52.354;20.886;2023-03-01T03:18:59;45.90;;;17.85;;
18206;SDS011;9229;52.354;20.886;2023-03-01T03:24:05;43.40;;;17.33;;
18206;SDS011;9229;52.354;20.886;2023-03-01T03:29:07;41.58;;;17.40;;
18206;SDS011;9229;52.354;20.886;2023-03-01T03:34:10;50.03;;;16.63;;
18206;SDS011;9229;52.354;20.886;2023-03-01T03:39:18;47.40;;;17.42;;
18206;SDS011;9229;52.354;20.886;2023-03-01T03:44:20;44.38;;;18.20;;
18206;SDS011;9229;52.354;20.886;2023-03-01T03:49:24;37.08;;;17.80;;
18206;SDS011;9229;52.354;20.886;2023-03-01T03:54:28;45.28;;;17.85;;
18206;SDS011;9229;52.354;20.886;2023-03-01T03:59:30;52.50;;;17.77;;
18206;SDS011;9229;52.354;20.886;2023-03-01T04:04:34;44.35;;;18.95;;
18206;SDS011;9229;52.354;20.886;2023-03-01T04:09:36;50.47;;;19.52;;
18206;SDS011;9229;52.354;20.886;2023-03-01T04:14:39;44.63;;;18.75;;
18206;SDS011;9229;52.354;20.886;2023-03-01T04:19:42;47.10;;;19.02;;
18206;SDS011;9229;52.354;20.886;2023-03-01T04:24:48;39.50;;;17.08;;
18206;SDS011;9229;52.354;20.886;2023-03-01T04:29:51;57.78;;;18.63;;
18206;SDS011;9229;52.354;20.886;2023-03-01T04:34:54;44.30;;;18.70;;
18206;SDS011;9229;52.354;20.886;2023-03-01T04:39:57;40.85;;;16.85;;
18206;SDS011;9229;52.354;20.886;2023-03-01T04:44:59;38.78;;;17.00;;
18206;SDS011;9229;52.354;20.886;2023-03-01T04:50:03;47.65;;;17.10;;
18206;SDS011;9229;52.354;20.886;2023-03-01T04:55:06;34.47;;;15.75;;
18206;SDS011;9229;52.354;20.886;2023-03-01T05:00:11;46.42;;;17.38;;
18206;SDS011;9229;52.354;20.886;2023-03-01T05:05:23;47.38;;;19.02;;
18206;SDS011;9229;52.354;20.886;2023-03-01T05:10:33;47.17;;;18.05;;
18206;SDS011;9229;52.354;20.886;2023-03-01T05:15:39;49.20;;;18.33;;
18206;SDS011;9229;52.354;20.886;2023-03-01T05:20:43;44.95;;;17.45;;
18206;SDS011;9229;52.354;20.886;2023-03-01T05:25:46;48.10;;;18.48;;
18206;SDS011;9229;52.354;20.886;2023-03-01T05:30:49;53.40;;;20.58;;
18206;SDS011;9229;52.354;20.886;2023-03-01T05:35:53;46.88;;;18.88;;
18206;SDS011;9229;52.354;20.886;2023-03-01T05:40:56;49.88;;;19.50;;
18206;SDS011;9229;52.354;20.886;2023-03-01T05:45:58;46.17;;;19.65;;
18206;SDS011;9229;52.354;20.886;2023-03-01T05:51:03;47.58;;;18.35;;
18206;SDS011;9229;52.354;20.886;2023-03-01T05:56:06;60.33;;;23.27;;
18206;SDS011;9229;52.354;20.886;2023-03-01T06:01:10;48.60;;;19.10;;
18206;SDS011;9229;52.354;20.886;2023-03-01T06:06:14;46.45;;;19.85;;
18206;SDS011;9229;52.354;20.886;2023-03-01T06:11:18;54.67;;;20.85;;
18206;SDS011;9229;52.354;20.886;2023-03-01T06:16:20;45.17;;;18.98;;
18206;SDS011;9229;52.354;20.886;2023-03-01T06:21:27;54.70;;;22.10;;
18206;SDS011;9229;52.354;20.886;2023-03-01T06:26:29;57.45;;;21.00;;
18206;SDS011;9229;52.354;20.886;2023-03-01T06:31:32;47.42;;;19.55;;
18206;SDS011;9229;52.354;20.886;2023-03-01T06:36:36;52.63;;;20.55;;
18206;SDS011;9229;52.354;20.886;2023-03-01T06:41:38;58.35;;;22.13;;
18206;SDS011;9229;52.354;20.886;2023-03-01T06:46:42;50.10;;;22.02;;
18206;SDS011;9229;52.354;20.886;2023-03-01T06:51:46;63.03;;;22.02;;
18206;SDS011;9229;52.354;20.886;2023-03-01T06:56:49;64.85;;;26.23;;
18206;SDS011;9229;52.354;20.886;2023-03-01T07:01:53;42.65;;;19.67;;
18206;SDS011;9229;52.354;20.886;2023-03-01T07:06:58;51.42;;;23.25;;
18206;SDS011;9229;52.354;20.886;2023-03-01T07:12:00;67.63;;;23.73;;
18206;SDS011;9229;52.354;20.886;2023-03-01T07:17:02;67.72;;;24.55;;
18206;SDS011;9229;52.354;20.886;2023-03-01T07:22:06;65.85;;;24.88;;
18206;SDS011;9229;52.354;20.886;2023-03-01T07:27:09;47.40;;;19.50;;
18206;SDS011;9229;52.354;20.886;2023-03-01T07:32:13;48.75;;;19.38;;
18206;SDS011;9229;52.354;20.886;2023-03-01T07:37:17;72.38;;;25.60;;
18206;SDS011;9229;52.354;20.886;2023-03-01T07:42:20;47.47;;;20.75;;
18206;SDS011;9229;52.354;20.886;2023-03-01T07:47:22;54.38;;;20.80;;
18206;SDS011;9229;52.354;20.886;2023-03-01T07:52:26;50.90;;;22.17;;
18206;SDS011;9229;52.354;20.886;2023-03-01T07:57:29;46.95;;;20.30;;
18206;SDS011;9229;52.354;20.886;2023-03-01T08:02:31;54.30;;;21.48;;
18206;SDS011;9229;52.354;20.886;2023-03-01T08:07:35;47.25;;;19.02;;
18206;SDS011;9229;52.354;20.886;2023-03-01T08:12:38;46.63;;;16.95;;
18206;SDS011;9229;52.354;20.886;2023-03-01T08:17:40;38.53;;;17.13;;
18206;SDS011;9229;52.354;20.886;2023-03-01T08:22:48;47.47;;;18.33;;
18206;SDS011;9229;52.354;20.886;2023-03-01T08:27:50;39.67;;;17.00;;
18206;SDS011;9229;52.354;20.886;2023-03-01T08:32:52;41.83;;;17.10;;
18206;SDS011;9229;52.354;20.886;2023-03-01T08:37:55;49.63;;;18.67;;
18206;SDS011;9229;52.354;20.886;2023-03-01T08:42:57;46.13;;;17.70;;
18206;SDS011;9229;52.354;20.886;2023-03-01T08:53:47;42.30;;;18.40;;
18206;SDS011;9229;52.354;20.886;2023-03-01T08:58:49;41.85;;;17.63;;
18206;SDS011;9229;52.354;20.886;2023-03-01T09:03:51;36.90;;;15.52;;
18206;SDS011;9229;52.354;20.886;2023-03-01T09:08:55;29.98;;;14.20;;
18206;SDS011;9229;52.354;20.886;2023-03-01T09:13:58;35.25;;;16.90;;
18206;SDS011;9229;52.354;20.886;2023-03-01T09:19:00;38.22;;;16.42;;
18206;SDS011;9229;52.354;20.886;2023-03-01T09:24:11;44.05;;;17.73;;
18206;SDS011;9229;52.354;20.886;2023-03-01T09:29:14;35.80;;;16.33;;
18206;SDS011;9229;52.354;20.886;2023-03-01T09:34:17;39.38;;;16.75;;
18206;SDS011;9229;52.354;20.886;2023-03-01T09:39:24;33.75;;;15.63;;
18206;SDS011;9229;52.354;20.886;2023-03-01T09:44:28;32.70;;;14.38;;
18206;SDS011;9229;52.354;20.886;2023-03-01T09:49:36;45.75;;;16.38;;
18206;SDS011;9229;52.354;20.886;2023-03-01T09:54:52;31.23;;;14.63;;
18206;SDS011;9229;52.354;20.886;2023-03-01T10:00:00;28.13;;;14.20;;
18206;SDS011;9229;52.354;20.886;2023-03-01T10:05:14;27.35;;;13.00;;
18206;SDS011;9229;52.354;20.886;2023-03-01T10:10:35;42.92;;;15.50;;
18206;SDS011;9229;52.354;20.886;2023-03-01T10:15:41;30.92;;;15.32;;
18206;SDS011;9229;52.354;20.886;2023-03-01T10:20:46;30.42;;;15.80;;
18206;SDS011;9229;52.354;20.886;2023-03-01T10:26:07;34.65;;;15.73;;
18206;SDS011;9229;52.354;20.886;2023-03-01T10:31:18;30.85;;;15.20;;
18206;SDS011;9229;52.354;20.886;2023-03-01T10:36:29;35.70;;;16.40;;
18206;SDS011;9229;52.354;20.886;2023-03-01T10:41:37;32.50;;;16.58;;
18206;SDS011;9229;52.354;20.886;2023-03-01T10:47:17;35.45;;;15.85;;
18206;SDS011;9229;52.354;20.886;2023-03-01T10:52:22;42.08;;;15.15;;
18206;SDS011;9229;52.354;20.886;2023-03-01T10:57:29;31.08;;;14.65;;
18206;SDS011;9229;52.354;20.886;2023-03-01T11:02:37;30.20;;;15.65;;
18206;SDS011;9229;52.354;20.886;2023-03-01T11:07:46;26.00;;;13.65;;
18206;SDS011;9229;52.354;20.886;2023-03-01T11:12:51;31.85;;;14.13;;
18206;SDS011;9229;52.354;20.886;2023-03-01T11:17:54;34.38;;;14.55;;
18206;SDS011;9229;52.354;20.886;2023-03-01T11:22:59;29.42;;;14.23;;
18206;SDS011;9229;52.354;20.886;2023-03-01T11:28:14;30.75;;;14.15;;
18206;SDS011;9229;52.354;20.886;2023-03-01T11:33:24;32.53;;;17.20;;
18206;SDS011;9229;52.354;20.886;2023-03-01T11:38:37;29.42;;;15.80;;
18206;SDS011;9229;52.354;20.886;2023-03-01T11:43:44;53.20;;;20.75;;
18206;SDS011;9229;52.354;20.886;2023-03-01T11:48:56;58.47;;;24.83;;
18206;SDS011;9229;52.354;20.886;2023-03-01T11:54:11;37.85;;;17.33;;
18206;SDS011;9229;52.354;20.886;2023-03-01T11:59:28;37.35;;;15.77;;
18206;SDS011;9229;52.354;20.886;2023-03-01T12:04:49;32.38;;;16.65;;
18206;SDS011;9229;52.354;20.886;2023-03-01T12:10:14;31.35;;;16.13;;
18206;SDS011;9229;52.354;20.886;2023-03-01T12:15:33;33.67;;;15.95;;
18206;SDS011;9229;52.354;20.886;2023-03-01T12:20:45;27.15;;;15.20;;
18206;SDS011;9229;52.354;20.886;2023-03-01T12:26:01;36.53;;;16.17;;
18206;SDS011;9229;52.354;20.886;2023-03-01T12:36:45;32.83;;;15.73;;
18206;SDS011;9229;52.354;20.886;2023-03-01T12:41:59;31.38;;;15.50;;
18206;SDS011;9229;52.354;20.886;2023-03-01T12:52:33;47.97;;;16.88;;
18206;SDS011;9229;52.354;20.886;2023-03-01T12:57:41;35.92;;;16.98;;
18206;SDS011;9229;52.354;20.886;2023-03-01T13:02:49;28.85;;;14.45;;
18206;SDS011;9229;52.354;20.886;2023-03-01T13:08:01;26.55;;;14.27;;
18206;SDS011;9229;52.354;20.886;2023-03-01T13:13:19;29.92;;;13.88;;
18206;SDS011;9229;52.354;20.886;2023-03-01T13:18:32;29.63;;;14.77;;
18206;SDS011;9229;52.354;20.886;2023-03-01T13:23:36;27.50;;;14.63;;
18206;SDS011;9229;52.354;20.886;2023-03-01T13:34:02;37.72;;;17.23;;
18206;SDS011;9229;52.354;20.886;2023-03-01T13:39:25;29.33;;;15.70;;
18206;SDS011;9229;52.354;20.886;2023-03-01T13:44:33;25.20;;;14.02;;
18206;SDS011;9229;52.354;20.886;2023-03-01T13:49:43;29.10;;;13.73;;
18206;SDS011;9229;52.354;20.886;2023-03-01T13:54:47;27.02;;;15.48;;
18206;SDS011;9229;52.354;20.886;2023-03-01T13:59:50;30.05;;;15.82;;
18206;SDS011;9229;52.354;20.886;2023-03-01T14:04:59;31.08;;;14.75;;
18206;SDS011;9229;52.354;20.886;2023-03-01T14:10:03;29.67;;;15.55;;
18206;SDS011;9229;52.354;20.886;2023-03-01T14:15:08;29.65;;;14.90;;
18206;SDS011;9229;52.354;20.886;2023-03-01T14:20:21;31.92;;;15.93;;
18206;SDS011;9229;52.354;20.886;2023-03-01T14:25:28;36.85;;;16.27;;
18206;SDS011;9229;52.354;20.886;2023-03-01T14:30:33;30.40;;;15.85;;
18206;SDS011;9229;52.354;20.886;2023-03-01T14:35:40;26.95;;;15.20;;
18206;SDS011;9229;52.354;20.886;2023-03-01T14:40:42;36.08;;;16.40;;
18206;SDS011;9229;52.354;20.886;2023-03-01T14:45:46;30.65;;;15.38;;
18206;SDS011;9229;52.354;20.886;2023-03-01T14:50:51;24.55;;;14.48;;
18206;SDS011;9229;52.354;20.886;2023-03-01T14:55:55;29.83;;;15.48;;
18206;SDS011;9229;52.354;20.886;2023-03-01T15:01:03;29.83;;;16.17;;
18206;SDS011;9229;52.354;20.886;2023-03-01T15:06:07;27.67;;;16.30;;
18206;SDS011;9229;52.354;20.886;2023-03-01T15:11:17;40.47;;;17.80;;
18206;SDS011;9229;52.354;20.886;2023-03-01T15:16:24;31.55;;;17.38;;
18206;SDS011;9229;52.354;20.886;2023-03-01T15:21:31;30.30;;;17.02;;
18206;SDS011;9229;52.354;20.886;2023-03-01T15:26:35;33.65;;;17.73;;
18206;SDS011;9229;52.354;20.886;2023-03-01T15:31:41;32.92;;;16.77;;
18206;SDS011;9229;52.354;20.886;2023-03-01T15:36:45;33.83;;;16.60;;
18206;SDS011;9229;52.354;20.886;2023-03-01T15:41:49;29.85;;;16.80;;
18206;SDS011;9229;52.354;20.886;2023-03-01T15:46:52;34.90;;;17.52;;
18206;SDS011;9229;52.354;20.886;2023-03-01T15:51:55;52.83;;;23.38;;
18206;SDS011;9229;52.354;20.886;2023-03-01T15:56:58;52.58;;;24.02;;
18206;SDS011;9229;52.354;20.886;2023-03-01T16:02:00;51.00;;;19.77;;
18206;SDS011;9229;52.354;20.886;2023-03-01T16:07:04;41.40;;;21.58;;
18206;SDS011;9229;52.354;20.886;2023-03-01T16:12:08;59.80;;;25.45;;
18206;SDS011;9229;52.354;20.886;2023-03-01T16:17:15;55.33;;;25.20;;
18206;SDS011;9229;52.354;20.886;2023-03-01T16:22:20;77.20;;;31.88;;
18206;SDS011;9229;52.354;20.886;2023-03-01T16:27:25;77.60;;;34.97;;
18206;SDS011;9229;52.354;20.886;2023-03-01T16:32:27;80.75;;;32.95;;
18206;SDS011;9229;52.354;20.886;2023-03-01T16:37:33;61.13;;;28.10;;
18206;SDS011;9229;52.354;20.886;2023-03-01T16:42:36;58.65;;;26.88;;
18206;SDS011;9229;52.354;20.886;2023-03-01T16:47:41;65.03;;;29.52;;
18206;SDS011;9229;52.354;20.886;2023-03-01T16:52:45;112.15;;;41.63;;
18206;SDS011;9229;52.354;20.886;2023-03-01T16:57:47;124.47;;;46.90;;
18206;SDS011;9229;52.354;20.886;2023-03-01T17:02:51;111.85;;;41.53;;
18206;SDS011;9229;52.354;20.886;2023-03-01T17:07:57;79.07;;;33.17;;
18206;SDS011;9229;52.354;20.886;2023-03-01T17:12:59;84.65;;;33.65;;
18206;SDS011;9229;52.354;20.886;2023-03-01T17:18:02;56.03;;;26.42;;
18206;SDS011;9229;52.354;20.886;2023-03-01T17:23:07;59.75;;;24.08;;
18206;SDS011;9229;52.354;20.886;2023-03-01T17:28:09;40.40;;;19.83;;
18206;SDS011;9229;52.354;20.886;2023-03-01T17:33:11;49.60;;;20.95;;
18206;SDS011;9229;52.354;20.886;2023-03-01T17:38:15;55.85;;;21.65;;
18206;SDS011;9229;52.354;20.886;2023-03-01T17:43:17;51.75;;;23.13;;
18206;SDS011;9229;52.354;20.886;2023-03-01T17:48:22;57.67;;;23.75;;
18206;SDS011;9229;52.354;20.886;2023-03-01T17:53:26;47.65;;;21.17;;
18206;SDS011;9229;52.354;20.886;2023-03-01T17:58:29;49.42;;;22.63;;
18206;SDS011;9229;52.354;20.886;2023-03-01T18:03:31;124.70;;;38.83;;
18206;SDS011;9229;52.354;20.886;2023-03-01T18:08:35;55.90;;;24.77;;
18206;SDS011;9229;52.354;20.886;2023-03-01T18:13:37;62.95;;;24.17;;
18206;SDS011;9229;52.354;20.886;2023-03-01T18:18:40;54.60;;;25.00;;
18206;SDS011;9229;52.354;20.886;2023-03-01T18:23:47;70.35;;;30.10;;
18206;SDS011;9229;52.354;20.886;2023-03-01T18:28:49;88.47;;;33.33;;
18206;SDS011;9229;52.354;20.886;2023-03-01T18:33:54;93.63;;;33.45;;
18206;SDS011;9229;52.354;20.886;2023-03-01T18:38:58;102.55;;;35.10;;
18206;SDS011;9229;52.354;20.886;2023-03-01T18:44:03;87.80;;;32.85;;
18206;SDS011;9229;52.354;20.886;2023-03-01T18:49:07;75.63;;;28.77;;
18206;SDS011;9229;52.354;20.886;2023-03-01T18:54:11;78.30;;;27.20;;
18206;SDS011;9229;52.354;20.886;2023-03-01T18:59:13;66.00;;;26.63;;
18206;SDS011;9229;52.354;20.886;2023-03-01T19:04:15;73.50;;;26.38;;
18206;SDS011;9229;52.354;20.886;2023-03-01T19:09:19;62.60;;;26.90;;
18206;SDS011;9229;52.354;20.886;2023-03-01T19:14:21;65.05;;;26.20;;
18206;SDS011;9229;52.354;20.886;2023-03-01T19:19:25;77.35;;;26.25;;
18206;SDS011;9229;52.354;20.886;2023-03-01T19:24:29;66.90;;;25.35;;
18206;SDS011;9229;52.354;20.886;2023-03-01T19:29:31;66.72;;;26.05;;
18206;SDS011;9229;52.354;20.886;2023-03-01T19:34:34;78.03;;;25.98;;
18206;SDS011;9229;52.354;20.886;2023-03-01T19:39:40;71.50;;;25.80;;
18206;SDS011;9229;52.354;20.886;2023-03-01T19:44:42;63.45;;;26.75;;
18206;SDS011;9229;52.354;20.886;2023-03-01T19:49:45;86.40;;;28.30;;
18206;SDS011;9229;52.354;20.886;2023-03-01T19:54:49;56.08;;;26.25;;
18206;SDS011;9229;52.354;20.886;2023-03-01T19:59:51;78.55;;;28.80;;
18206;SDS011;9229;52.354;20.886;2023-03-01T20:04:54;86.10;;;28.75;;
18206;SDS011;9229;52.354;20.886;2023-03-01T20:10:01;98.60;;;32.22;;
18206;SDS011;9229;52.354;20.886;2023-03-01T20:15:03;127.63;;;35.90;;
18206;SDS011;9229;52.354;20.886;2023-03-01T20:20:08;160.63;;;41.63;;
18206;SDS011;9229;52.354;20.886;2023-03-01T20:25:13;124.00;;;36.50;;
18206;SDS011;9229;52.354;20.886;2023-03-01T20:30:15;126.90;;;36.42;;
18206;SDS011;9229;52.354;20.886;2023-03-01T20:35:17;148.43;;;40.33;;
18206;SDS011;9229;52.354;20.886;2023-03-01T20:40:22;153.60;;;40.08;;
18206;SDS011;9229;52.354;20.886;2023-03-01T20:45:27;146.55;;;40.33;;
18206;SDS011;9229;52.354;20.886;2023-03-01T20:50:30;163.77;;;42.97;;
18206;SDS011;9229;52.354;20.886;2023-03-01T20:55:33;142.90;;;40.13;;
18206;SDS011;9229;52.354;20.886;2023-03-01T21:00:35;118.90;;;35.88;;
18206;SDS011;9229;52.354;20.886;2023-03-01T21:05:37;96.85;;;33.38;;
18206;SDS011;9229;52.354;20.886;2023-03-01T21:10:42;88.05;;;29.85;;
18206;SDS011;9229;52.354;20.886;2023-03-01T21:15:52;87.43;;;28.55;;
18206;SDS011;9229;52.354;20.886;2023-03-01T21:20:57;84.32;;;28.77;;
18206;SDS011;9229;52.354;20.886;2023-03-01T21:26:05;92.97;;;29.50;;
18206;SDS011;9229;52.354;20.886;2023-03-01T21:31:09;89.68;;;32.08;;
18206;SDS011;9229;52.354;20.886;2023-03-01T21:36:14;88.47;;;30.83;;
18206;SDS011;9229;52.354;20.886;2023-03-01T21:41:18;114.93;;;39.00;;
18206;SDS011;9229;52.354;20.886;2023-03-01T21:46:23;132.68;;;42.08;;
18206;SDS011;9229;52.354;20.886;2023-03-01T21:51:26;182.68;;;55.63;;
18206;SDS011;9229;52.354;20.886;2023-03-01T21:56:31;167.95;;;49.60;;
18206;SDS011;9229;52.354;20.886;2023-03-01T22:01:39;152.50;;;45.08;;
18206;SDS011;9229;52.354;20.886;2023-03-01T22:06:41;124.40;;;42.10;;
18206;SDS011;9229;52.354;20.886;2023-03-01T22:11:47;125.93;;;41.00;;
18206;SDS011;9229;52.354;20.886;2023-03-01T22:16:50;120.43;;;42.83;;
18206;SDS011;9229;52.354;20.886;2023-03-01T22:21:52;116.78;;;39.10;;
18206;SDS011;9229;52.354;20.886;2023-03-01T22:26:56;107.75;;;37.72;;
18206;SDS011;9229;52.354;20.886;2023-03-01T22:32:00;120.82;;;40.53;;
18206;SDS011;9229;52.354;20.886;2023-03-01T22:37:03;116.13;;;37.88;;
18206;SDS011;9229;52.354;20.886;2023-03-01T22:42:08;115.90;;;37.90;;
18206;SDS011;9229;52.354;20.886;2023-03-01T22:47:10;102.97;;;36.92;;
18206;SDS011;9229;52.354;20.886;2023-03-01T22:52:12;111.50;;;36.47;;
18206;SDS011;9229;52.354;20.886;2023-03-01T22:57:16;122.97;;;36.08;;
18206;SDS011;9229;52.354;20.886;2023-03-01T23:02:18;112.15;;;36.83;;
18206;SDS011;9229;52.354;20.886;2023-03-01T23:07:21;94.90;;;34.70;;
18206;SDS011;9229;52.354;20.886;2023-03-01T23:12:28;95.00;;;33.53;;
18206;SDS011;9229;52.354;20.886;2023-03-01T23:17:30;94.90;;;32.45;;
18206;SDS011;9229;52.354;20.886;2023-03-01T23:22:32;88.80;;;30.77;;
18206;SDS011;9229;52.354;20.886;2023-03-01T23:27:36;82.45;;;30.08;;
18206;SDS011;9229;52.354;20.886;2023-03-01T23:32:38;95.05;;;33.88;;
18206;SDS011;9229;52.354;20.886;2023-03-01T23:37:40;110.45;;;36.75;;
18206;SDS011;9229;52.354;20.886;2023-03-01T23:42:45;124.18;;;38.67;;
18206;SDS011;9229;52.354;20.886;2023-03-01T23:47:48;117.07;;;35.22;;
18206;SDS011;9229;52.354;20.886;2023-03-01T23:52:51;97.82;;;33.33;;
18206;SDS011;9229;52.354;20.886;2023-03-01T23:57:54;103.90;;;34.05;;
